sensor_id;sensor_type;location;lat;lon;timestamp;P1;durP1;ratioP1;P2;durP2;ratioP2
75892;SDS011;64572;50.950;3.676;2023-04-01T00:00:46;16.60;;;5.70;;
75892;SDS011;64572;50.950;3.676;2023-04-01T00:03:12;16.05;;;4.80;;
75892;SDS011;64572;50.950;3.676;2023-04-01T00:05:38;17.58;;;6.25;;
75892;SDS011;64572;50.950;3.676;2023-04-01T00:08:04;17.35;;;5.10;;
75892;SDS011;64572;50.950;3.676;2023-04-01T00:10:30;13.27;;;4.50;;
75892;SDS011;64572;50.950;3.676;2023-04-01T00:12:56;16.45;;;6.07;;
75892;SDS011;64572;50.950;3.676;2023-04-01T00:15:21;17.02;;;6.32;;
75892;SDS011;64572;50.950;3.676;2023-04-01T00:17:47;14.30;;;6.57;;
75892;SDS011;64572;50.950;3.676;2023-04-01T00:20:13;15.77;;;5.45;;
75892;SDS011;64572;50.950;3.676;2023-04-01T00:22:39;14.15;;;5.05;;
75892;SDS011;64572;50.950;3.676;2023-04-01T00:25:05;17.27;;;5.75;;
75892;SDS011;64572;50.950;3.676;2023-04-01T00:27:32;11.07;;;4.82;;
75892;SDS011;64572;50.950;3.676;2023-04-01T00:29:57;19.90;;;5.47;;
75892;SDS011;64572;50.950;3.676;2023-04-01T00:32:23;16.00;;;6.00;;
75892;SDS011;64572;50.950;3.676;2023-04-01T00:34:50;15.70;;;5.03;;
75892;SDS011;64572;50.950;3.676;2023-04-01T00:37:17;13.23;;;4.63;;
75892;SDS011;64572;50.950;3.676;2023-04-01T00:39:42;14.95;;;5.80;;
75892;SDS011;64572;50.950;3.676;2023-04-01T00:42:09;11.02;;;4.88;;
75892;SDS011;64572;50.950;3.676;2023-04-01T00:44:36;20.27;;;6.65;;
75892;SDS011;64572;50.950;3.676;2023-04-01T00:47:03;13.30;;;6.05;;
75892;SDS011;64572;50.950;3.676;2023-04-01T00:49:30;28.05;;;9.70;;
75892;SDS011;64572;50.950;3.676;2023-04-01T00:52:01;29.42;;;10.52;;
75892;SDS011;64572;50.950;3.676;2023-04-01T00:59:27;29.98;;;11.77;;
75892;SDS011;64572;50.950;3.676;2023-04-01T01:01:57;29.70;;;8.07;;
75892;SDS011;64572;50.950;3.676;2023-04-01T01:04:27;31.85;;;11.32;;
75892;SDS011;64572;50.950;3.676;2023-04-01T01:12:40;19.42;;;6.78;;
75892;SDS011;64572;50.950;3.676;2023-04-01T01:15:23;12.90;;;4.68;;
75892;SDS011;64572;50.950;3.676;2023-04-01T01:20:58;19.70;;;6.53;;
75892;SDS011;64572;50.950;3.676;2023-04-01T01:25:57;16.75;;;5.32;;
75892;SDS011;64572;50.950;3.676;2023-04-01T01:31:43;15.55;;;3.55;;
75892;SDS011;64572;50.950;3.676;2023-04-01T01:37:20;13.93;;;4.35;;
75892;SDS011;64572;50.950;3.676;2023-04-01T01:39:54;16.33;;;4.15;;
75892;SDS011;64572;50.950;3.676;2023-04-01T01:42:23;12.43;;;3.10;;
75892;SDS011;64572;50.950;3.676;2023-04-01T01:44:52;17.98;;;4.47;;
75892;SDS011;64572;50.950;3.676;2023-04-01T01:47:19;13.60;;;4.20;;
75892;SDS011;64572;50.950;3.676;2023-04-01T01:49:48;20.90;;;5.25;;
75892;SDS011;64572;50.950;3.676;2023-04-01T01:52:16;16.50;;;4.28;;
75892;SDS011;64572;50.950;3.676;2023-04-01T01:54:52;23.45;;;4.97;;
75892;SDS011;64572;50.950;3.676;2023-04-01T01:57:21;21.40;;;4.53;;
75892;SDS011;64572;50.950;3.676;2023-04-01T01:59:55;13.40;;;4.13;;
75892;SDS011;64572;50.950;3.676;2023-04-01T02:02:26;16.38;;;6.00;;
75892;SDS011;64572;50.950;3.676;2023-04-01T02:04:52;29.52;;;7.95;;
75892;SDS011;64572;50.950;3.676;2023-04-01T02:07:20;25.83;;;4.78;;
75892;SDS011;64572;50.950;3.676;2023-04-01T02:09:50;27.13;;;7.13;;
75892;SDS011;64572;50.950;3.676;2023-04-01T02:12:16;16.60;;;4.70;;
75892;SDS011;64572;50.950;3.676;2023-04-01T02:17:19;28.38;;;8.75;;
75892;SDS011;64572;50.950;3.676;2023-04-01T02:22:19;25.40;;;7.88;;
75892;SDS011;64572;50.950;3.676;2023-04-01T02:24:49;55.60;;;9.32;;
75892;SDS011;64572;50.950;3.676;2023-04-01T02:27:19;27.85;;;9.70;;
75892;SDS011;64572;50.950;3.676;2023-04-01T02:29:45;25.75;;;7.97;;
75892;SDS011;64572;50.950;3.676;2023-04-01T02:32:10;26.65;;;6.28;;
75892;SDS011;64572;50.950;3.676;2023-04-01T02:34:39;23.27;;;6.10;;
75892;SDS011;64572;50.950;3.676;2023-04-01T02:37:05;20.15;;;5.55;;
75892;SDS011;64572;50.950;3.676;2023-04-01T02:39:31;20.83;;;5.90;;
75892;SDS011;64572;50.950;3.676;2023-04-01T02:41:57;19.80;;;5.15;;
75892;SDS011;64572;50.950;3.676;2023-04-01T02:44:23;25.67;;;5.13;;
75892;SDS011;64572;50.950;3.676;2023-04-01T02:46:48;13.13;;;4.28;;
75892;SDS011;64572;50.950;3.676;2023-04-01T02:49:15;17.83;;;4.75;;
75892;SDS011;64572;50.950;3.676;2023-04-01T02:51:41;15.25;;;4.65;;
75892;SDS011;64572;50.950;3.676;2023-04-01T02:54:06;19.67;;;5.05;;
75892;SDS011;64572;50.950;3.676;2023-04-01T02:56:32;12.88;;;4.13;;
75892;SDS011;64572;50.950;3.676;2023-04-01T02:58:58;17.92;;;4.45;;
75892;SDS011;64572;50.950;3.676;2023-04-01T03:01:23;9.93;;;3.70;;
75892;SDS011;64572;50.950;3.676;2023-04-01T03:03:49;13.15;;;4.65;;
75892;SDS011;64572;50.950;3.676;2023-04-01T03:06:15;16.83;;;4.63;;
75892;SDS011;64572;50.950;3.676;2023-04-01T03:08:41;15.00;;;4.32;;
75892;SDS011;64572;50.950;3.676;2023-04-01T03:11:08;21.23;;;5.68;;
75892;SDS011;64572;50.950;3.676;2023-04-01T03:13:35;16.27;;;5.87;;
75892;SDS011;64572;50.950;3.676;2023-04-01T03:16:00;17.20;;;4.68;;
75892;SDS011;64572;50.950;3.676;2023-04-01T03:18:26;20.73;;;5.53;;
75892;SDS011;64572;50.950;3.676;2023-04-01T03:20:52;15.05;;;4.72;;
75892;SDS011;64572;50.950;3.676;2023-04-01T03:23:18;20.30;;;5.40;;
75892;SDS011;64572;50.950;3.676;2023-04-01T03:25:45;17.77;;;4.68;;
75892;SDS011;64572;50.950;3.676;2023-04-01T03:28:12;14.68;;;5.05;;
75892;SDS011;64572;50.950;3.676;2023-04-01T03:30:38;21.45;;;5.53;;
75892;SDS011;64572;50.950;3.676;2023-04-01T03:33:04;20.48;;;4.85;;
75892;SDS011;64572;50.950;3.676;2023-04-01T03:35:30;21.85;;;4.93;;
75892;SDS011;64572;50.950;3.676;2023-04-01T03:37:56;16.40;;;6.35;;
75892;SDS011;64572;50.950;3.676;2023-04-01T03:40:22;16.25;;;5.75;;
75892;SDS011;64572;50.950;3.676;2023-04-01T03:42:48;15.73;;;6.20;;
75892;SDS011;64572;50.950;3.676;2023-04-01T03:45:14;12.90;;;4.50;;
75892;SDS011;64572;50.950;3.676;2023-04-01T03:47:40;19.55;;;6.90;;
75892;SDS011;64572;50.950;3.676;2023-04-01T03:50:06;15.05;;;4.93;;
75892;SDS011;64572;50.950;3.676;2023-04-01T03:52:33;15.30;;;5.55;;
75892;SDS011;64572;50.950;3.676;2023-04-01T03:54:59;22.17;;;7.53;;
75892;SDS011;64572;50.950;3.676;2023-04-01T03:57:26;14.40;;;4.40;;
75892;SDS011;64572;50.950;3.676;2023-04-01T03:59:51;12.85;;;4.05;;
75892;SDS011;64572;50.950;3.676;2023-04-01T04:02:17;14.90;;;5.72;;
75892;SDS011;64572;50.950;3.676;2023-04-01T04:04:44;11.88;;;5.28;;
75892;SDS011;64572;50.950;3.676;2023-04-01T04:07:11;12.77;;;5.53;;
75892;SDS011;64572;50.950;3.676;2023-04-01T04:09:37;13.25;;;4.65;;
75892;SDS011;64572;50.950;3.676;2023-04-01T04:12:03;21.10;;;5.95;;
75892;SDS011;64572;50.950;3.676;2023-04-01T04:14:30;18.13;;;4.93;;
75892;SDS011;64572;50.950;3.676;2023-04-01T04:16:56;14.63;;;5.22;;
75892;SDS011;64572;50.950;3.676;2023-04-01T04:19:22;19.88;;;7.30;;
75892;SDS011;64572;50.950;3.676;2023-04-01T04:21:47;22.15;;;8.65;;
75892;SDS011;64572;50.950;3.676;2023-04-01T04:24:13;18.30;;;6.70;;
75892;SDS011;64572;50.950;3.676;2023-04-01T04:26:39;16.15;;;6.65;;
75892;SDS011;64572;50.950;3.676;2023-04-01T04:29:07;20.77;;;8.63;;
75892;SDS011;64572;50.950;3.676;2023-04-01T04:31:32;17.85;;;5.80;;
75892;SDS011;64572;50.950;3.676;2023-04-01T04:33:58;18.92;;;6.75;;
75892;SDS011;64572;50.950;3.676;2023-04-01T04:36:28;16.85;;;6.18;;
75892;SDS011;64572;50.950;3.676;2023-04-01T04:38:54;25.20;;;8.90;;
75892;SDS011;64572;50.950;3.676;2023-04-01T04:41:19;15.93;;;7.55;;
75892;SDS011;64572;50.950;3.676;2023-04-01T04:43:51;21.83;;;7.05;;
75892;SDS011;64572;50.950;3.676;2023-04-01T04:46:18;18.52;;;7.72;;
75892;SDS011;64572;50.950;3.676;2023-04-01T04:48:44;17.60;;;6.78;;
75892;SDS011;64572;50.950;3.676;2023-04-01T04:51:14;23.60;;;6.90;;
75892;SDS011;64572;50.950;3.676;2023-04-01T04:53:41;19.65;;;8.57;;
75892;SDS011;64572;50.950;3.676;2023-04-01T04:56:06;19.35;;;6.45;;
75892;SDS011;64572;50.950;3.676;2023-04-01T04:58:32;21.90;;;7.40;;
75892;SDS011;64572;50.950;3.676;2023-04-01T05:00:58;21.35;;;7.95;;
75892;SDS011;64572;50.950;3.676;2023-04-01T05:03:29;28.30;;;9.25;;
75892;SDS011;64572;50.950;3.676;2023-04-01T05:05:55;22.92;;;7.72;;
75892;SDS011;64572;50.950;3.676;2023-04-01T05:08:21;21.90;;;7.68;;
75892;SDS011;64572;50.950;3.676;2023-04-01T05:10:46;20.40;;;7.85;;
75892;SDS011;64572;50.950;3.676;2023-04-01T05:13:12;17.65;;;7.60;;
75892;SDS011;64572;50.950;3.676;2023-04-01T05:15:38;23.17;;;8.63;;
75892;SDS011;64572;50.950;3.676;2023-04-01T05:18:03;14.98;;;5.93;;
75892;SDS011;64572;50.950;3.676;2023-04-01T05:20:29;22.33;;;7.45;;
75892;SDS011;64572;50.950;3.676;2023-04-01T05:22:55;20.13;;;7.18;;
75892;SDS011;64572;50.950;3.676;2023-04-01T05:25:25;14.30;;;6.13;;
75892;SDS011;64572;50.950;3.676;2023-04-01T05:27:51;23.45;;;7.70;;
75892;SDS011;64572;50.950;3.676;2023-04-01T05:30:16;15.63;;;6.13;;
75892;SDS011;64572;50.950;3.676;2023-04-01T05:32:42;19.13;;;6.18;;
75892;SDS011;64572;50.950;3.676;2023-04-01T05:35:08;14.80;;;5.65;;
75892;SDS011;64572;50.950;3.676;2023-04-01T05:37:35;20.27;;;7.57;;
75892;SDS011;64572;50.950;3.676;2023-04-01T05:40:00;20.40;;;6.75;;
75892;SDS011;64572;50.950;3.676;2023-04-01T05:42:26;15.00;;;5.82;;
75892;SDS011;64572;50.950;3.676;2023-04-01T05:44:52;13.90;;;5.85;;
75892;SDS011;64572;50.950;3.676;2023-04-01T05:47:17;17.45;;;7.05;;
75892;SDS011;64572;50.950;3.676;2023-04-01T05:49:43;21.52;;;8.93;;
75892;SDS011;64572;50.950;3.676;2023-04-01T05:52:09;24.52;;;8.68;;
75892;SDS011;64572;50.950;3.676;2023-04-01T05:54:34;24.45;;;8.63;;
75892;SDS011;64572;50.950;3.676;2023-04-01T05:57:00;22.73;;;8.30;;
75892;SDS011;64572;50.950;3.676;2023-04-01T05:59:26;26.92;;;10.82;;
75892;SDS011;64572;50.950;3.676;2023-04-01T06:01:52;27.42;;;10.00;;
75892;SDS011;64572;50.950;3.676;2023-04-01T06:04:18;25.42;;;11.18;;
75892;SDS011;64572;50.950;3.676;2023-04-01T06:06:43;22.88;;;9.55;;
75892;SDS011;64572;50.950;3.676;2023-04-01T06:09:19;18.95;;;6.43;;
75892;SDS011;64572;50.950;3.676;2023-04-01T06:14:49;18.88;;;8.07;;
75892;SDS011;64572;50.950;3.676;2023-04-01T06:32:20;16.00;;;6.68;;
75892;SDS011;64572;50.950;3.676;2023-04-01T06:40:31;14.75;;;5.90;;
75892;SDS011;64572;50.950;3.676;2023-04-01T06:46:05;15.77;;;5.07;;
75892;SDS011;64572;50.950;3.676;2023-04-01T06:57:00;10.95;;;4.05;;
75892;SDS011;64572;50.950;3.676;2023-04-01T06:59:32;10.40;;;3.97;;
75892;SDS011;64572;50.950;3.676;2023-04-01T07:04:38;8.73;;;3.15;;
75892;SDS011;64572;50.950;3.676;2023-04-01T07:07:15;11.30;;;3.67;;
75892;SDS011;64572;50.950;3.676;2023-04-01T07:10:09;9.48;;;3.00;;
75892;SDS011;64572;50.950;3.676;2023-04-01T07:12:51;6.95;;;2.63;;
75892;SDS011;64572;50.950;3.676;2023-04-01T07:15:28;13.65;;;4.45;;
75892;SDS011;64572;50.950;3.676;2023-04-01T07:18:09;9.82;;;3.10;;
75892;SDS011;64572;50.950;3.676;2023-04-01T07:20:41;9.07;;;3.85;;
75892;SDS011;64572;50.950;3.676;2023-04-01T07:23:18;10.63;;;4.10;;
75892;SDS011;64572;50.950;3.676;2023-04-01T07:25:47;12.57;;;4.78;;
75892;SDS011;64572;50.950;3.676;2023-04-01T07:28:18;10.35;;;4.05;;
75892;SDS011;64572;50.950;3.676;2023-04-01T07:39:06;10.30;;;3.70;;
75892;SDS011;64572;50.950;3.676;2023-04-01T07:42:00;11.70;;;3.33;;
75892;SDS011;64572;50.950;3.676;2023-04-01T08:01:05;16.23;;;3.35;;
75892;SDS011;64572;50.950;3.676;2023-04-01T08:11:43;7.20;;;2.90;;
75892;SDS011;64572;50.950;3.676;2023-04-01T08:14:36;8.73;;;2.47;;
75892;SDS011;64572;50.950;3.676;2023-04-01T08:23:51;8.60;;;2.55;;
75892;SDS011;64572;50.950;3.676;2023-04-01T08:33:09;8.57;;;1.77;;
75892;SDS011;64572;50.950;3.676;2023-04-01T08:36:31;6.70;;;2.10;;
75892;SDS011;64572;50.950;3.676;2023-04-01T08:39:05;4.30;;;1.92;;
75892;SDS011;64572;50.950;3.676;2023-04-01T08:50:01;5.40;;;1.83;;
75892;SDS011;64572;50.950;3.676;2023-04-01T08:55:22;6.68;;;2.13;;
75892;SDS011;64572;50.950;3.676;2023-04-01T08:58:15;6.63;;;1.60;;
75892;SDS011;64572;50.950;3.676;2023-04-01T09:15:50;8.73;;;3.30;;
75892;SDS011;64572;50.950;3.676;2023-04-01T09:45:01;5.95;;;2.58;;
75892;SDS011;64572;50.950;3.676;2023-04-01T09:51:00;9.23;;;3.00;;
75892;SDS011;64572;50.950;3.676;2023-04-01T09:53:48;11.65;;;4.07;;
75892;SDS011;64572;50.950;3.676;2023-04-01T10:23:27;4.78;;;1.50;;
75892;SDS011;64572;50.950;3.676;2023-04-01T10:55:06;8.65;;;2.28;;
75892;SDS011;64572;50.950;3.676;2023-04-01T11:15:46;12.95;;;3.25;;
75892;SDS011;64572;50.950;3.676;2023-04-01T11:47:19;6.55;;;2.55;;
75892;SDS011;64572;50.950;3.676;2023-04-01T11:52:21;4.53;;;1.50;;
75892;SDS011;64572;50.950;3.676;2023-04-01T12:03:02;8.30;;;2.30;;
75892;SDS011;64572;50.950;3.676;2023-04-01T12:08:24;5.30;;;1.77;;
75892;SDS011;64572;50.950;3.676;2023-04-01T12:11:11;5.83;;;2.13;;
75892;SDS011;64572;50.950;3.676;2023-04-01T12:13:48;5.63;;;2.13;;
75892;SDS011;64572;50.950;3.676;2023-04-01T12:19:10;7.90;;;2.47;;
75892;SDS011;64572;50.950;3.676;2023-04-01T12:22:05;7.53;;;2.72;;
75892;SDS011;64572;50.950;3.676;2023-04-01T12:30:14;7.45;;;2.65;;
75892;SDS011;64572;50.950;3.676;2023-04-01T12:33:16;3.85;;;1.45;;
75892;SDS011;64572;50.950;3.676;2023-04-01T13:01:19;3.63;;;1.27;;
75892;SDS011;64572;50.950;3.676;2023-04-01T13:03:56;4.25;;;1.52;;
75892;SDS011;64572;50.950;3.676;2023-04-01T13:26:17;6.68;;;1.90;;
75892;SDS011;64572;50.950;3.676;2023-04-01T13:29:01;4.15;;;1.55;;
75892;SDS011;64572;50.950;3.676;2023-04-01T13:32:17;2.53;;;1.10;;
75892;SDS011;64572;50.950;3.676;2023-04-01T13:34:52;1.33;;;0.95;;
75892;SDS011;64572;50.950;3.676;2023-04-01T13:44:00;4.15;;;1.02;;
75892;SDS011;64572;50.950;3.676;2023-04-01T13:52:33;4.68;;;1.58;;
75892;SDS011;64572;50.950;3.676;2023-04-01T13:55:35;4.68;;;1.40;;
75892;SDS011;64572;50.950;3.676;2023-04-01T14:30:42;6.05;;;1.48;;
75892;SDS011;64572;50.950;3.676;2023-04-01T14:55:21;4.95;;;1.52;;
75892;SDS011;64572;50.950;3.676;2023-04-01T15:00:31;4.88;;;1.40;;
75892;SDS011;64572;50.950;3.676;2023-04-01T15:03:19;4.72;;;1.80;;
75892;SDS011;64572;50.950;3.676;2023-04-01T15:20:40;5.45;;;1.77;;
75892;SDS011;64572;50.950;3.676;2023-04-01T15:23:14;9.95;;;2.40;;
75892;SDS011;64572;50.950;3.676;2023-04-01T15:33:01;5.60;;;1.75;;
75892;SDS011;64572;50.950;3.676;2023-04-01T15:42:31;9.18;;;2.50;;
75892;SDS011;64572;50.950;3.676;2023-04-01T15:45:49;8.07;;;2.00;;
75892;SDS011;64572;50.950;3.676;2023-04-01T16:28:39;10.13;;;2.47;;
75892;SDS011;64572;50.950;3.676;2023-04-01T16:31:55;8.88;;;2.00;;
75892;SDS011;64572;50.950;3.676;2023-04-01T16:50:17;5.25;;;1.95;;
75892;SDS011;64572;50.950;3.676;2023-04-01T16:52:59;6.95;;;2.20;;
75892;SDS011;64572;50.950;3.676;2023-04-01T16:59:18;9.02;;;2.97;;
75892;SDS011;64572;50.950;3.676;2023-04-01T17:05:54;13.15;;;3.30;;
75892;SDS011;64572;50.950;3.676;2023-04-01T17:23:16;14.75;;;5.10;;
75892;SDS011;64572;50.950;3.676;2023-04-01T17:41:02;11.43;;;4.65;;
75892;SDS011;64572;50.950;3.676;2023-04-01T17:46:20;13.93;;;5.55;;
75892;SDS011;64572;50.950;3.676;2023-04-01T17:59:27;15.80;;;5.38;;
75892;SDS011;64572;50.950;3.676;2023-04-01T18:05:24;11.10;;;4.50;;
75892;SDS011;64572;50.950;3.676;2023-04-01T18:08:04;10.05;;;4.10;;
75892;SDS011;64572;50.950;3.676;2023-04-01T18:26:24;21.27;;;6.32;;
75892;SDS011;64572;50.950;3.676;2023-04-01T18:29:35;17.47;;;4.83;;
75892;SDS011;64572;50.950;3.676;2023-04-01T18:32:22;17.52;;;6.50;;
75892;SDS011;64572;50.950;3.676;2023-04-01T18:35:02;19.70;;;5.95;;
75892;SDS011;64572;50.950;3.676;2023-04-01T18:42:59;22.30;;;7.85;;
75892;SDS011;64572;50.950;3.676;2023-04-01T18:45:57;23.17;;;7.80;;
75892;SDS011;64572;50.950;3.676;2023-04-01T18:54:16;22.65;;;8.43;;
75892;SDS011;64572;50.950;3.676;2023-04-01T18:56:59;29.60;;;10.65;;
75892;SDS011;64572;50.950;3.676;2023-04-01T19:08:35;36.17;;;10.85;;
75892;SDS011;64572;50.950;3.676;2023-04-01T19:17:00;34.97;;;12.77;;
75892;SDS011;64572;50.950;3.676;2023-04-01T19:26:20;33.83;;;14.30;;
75892;SDS011;64572;50.950;3.676;2023-04-01T19:50:14;42.58;;;14.48;;
75892;SDS011;64572;50.950;3.676;2023-04-01T19:55:48;35.65;;;14.55;;
75892;SDS011;64572;50.950;3.676;2023-04-01T19:58:26;39.17;;;14.55;;
75892;SDS011;64572;50.950;3.676;2023-04-01T20:01:23;31.92;;;12.20;;
75892;SDS011;64572;50.950;3.676;2023-04-01T20:04:07;37.42;;;12.65;;
75892;SDS011;64572;50.950;3.676;2023-04-01T20:06:43;37.83;;;12.25;;
75892;SDS011;64572;50.950;3.676;2023-04-01T20:09:58;41.92;;;14.43;;
75892;SDS011;64572;50.950;3.676;2023-04-01T20:15:41;35.15;;;13.10;;
75892;SDS011;64572;50.950;3.676;2023-04-01T20:18:57;49.08;;;14.48;;
75892;SDS011;64572;50.950;3.676;2023-04-01T20:23:54;40.45;;;13.20;;
75892;SDS011;64572;50.950;3.676;2023-04-01T20:26:27;39.50;;;15.35;;
75892;SDS011;64572;50.950;3.676;2023-04-01T20:29:37;38.70;;;13.95;;
75892;SDS011;64572;50.950;3.676;2023-04-01T20:35:24;40.88;;;14.80;;
75892;SDS011;64572;50.950;3.676;2023-04-01T20:48:38;38.85;;;15.48;;
75892;SDS011;64572;50.950;3.676;2023-04-01T20:51:22;32.95;;;15.90;;
75892;SDS011;64572;50.950;3.676;2023-04-01T20:59:33;43.23;;;15.70;;
75892;SDS011;64572;50.950;3.676;2023-04-01T21:08:53;48.90;;;18.15;;
75892;SDS011;64572;50.950;3.676;2023-04-01T21:35:31;60.90;;;23.30;;
75892;SDS011;64572;50.950;3.676;2023-04-01T21:40:37;58.30;;;21.00;;
75892;SDS011;64572;50.950;3.676;2023-04-01T21:51:19;57.28;;;19.35;;
75892;SDS011;64572;50.950;3.676;2023-04-01T22:00:20;69.50;;;23.83;;
75892;SDS011;64572;50.950;3.676;2023-04-01T22:14:29;56.17;;;21.85;;
75892;SDS011;64572;50.950;3.676;2023-04-01T22:17:19;62.45;;;24.85;;
75892;SDS011;64572;50.950;3.676;2023-04-01T22:26:38;66.28;;;23.65;;
75892;SDS011;64572;50.950;3.676;2023-04-01T22:29:13;78.15;;;25.65;;
75892;SDS011;64572;50.950;3.676;2023-04-01T22:32:26;63.33;;;23.15;;
75892;SDS011;64572;50.950;3.676;2023-04-01T22:48:17;59.00;;;21.02;;
75892;SDS011;64572;50.950;3.676;2023-04-01T22:59:11;61.58;;;22.15;;
75892;SDS011;64572;50.950;3.676;2023-04-01T23:02:03;57.95;;;22.15;;
75892;SDS011;64572;50.950;3.676;2023-04-01T23:05:11;64.15;;;22.23;;
75892;SDS011;64572;50.950;3.676;2023-04-01T23:10:58;60.08;;;22.88;;
75892;SDS011;64572;50.950;3.676;2023-04-01T23:13:26;64.20;;;22.95;;
75892;SDS011;64572;50.950;3.676;2023-04-01T23:16:10;72.22;;;24.80;;
75892;SDS011;64572;50.950;3.676;2023-04-01T23:22:00;50.65;;;20.08;;
75892;SDS011;64572;50.950;3.676;2023-04-01T23:24:36;54.85;;;22.17;;
75892;SDS011;64572;50.950;3.676;2023-04-01T23:27:27;47.88;;;17.50;;
75892;SDS011;64572;50.950;3.676;2023-04-01T23:33:11;52.55;;;21.73;;
75892;SDS011;64572;50.950;3.676;2023-04-01T23:35:51;49.08;;;21.40;;
75892;SDS011;64572;50.950;3.676;2023-04-01T23:39:02;50.38;;;19.38;;
75892;SDS011;64572;50.950;3.676;2023-04-01T23:45:02;59.63;;;23.63;;
75892;SDS011;64572;50.950;3.676;2023-04-01T23:50:04;60.95;;;26.73;;
75892;SDS011;64572;50.950;3.676;2023-04-01T23:52:39;57.65;;;26.58;;
75892;SDS011;64572;50.950;3.676;2023-04-01T23:57:36;57.53;;;27.17;;
